sensor_id;sensor_type;location;lat;lon;timestamp;temperature;humidity
20319;DHT22;10317;47.254;11.314;2024-03-25T00:02:13;5.30;70.30
20319;DHT22;10317;47.254;11.314;2024-03-25T00:04:39;5.20;71.00
20319;DHT22;10317;47.254;11.314;2024-03-25T00:07:05;5.20;71.80
20319;DHT22;10317;47.254;11.314;2024-03-25T00:09:30;5.20;73.30
20319;DHT22;10317;47.254;11.314;2024-03-25T00:11:56;5.20;73.50
20319;DHT22;10317;47.254;11.314;2024-03-25T00:14:22;5.10;74.70
20319;DHT22;10317;47.254;11.314;2024-03-25T00:16:47;5.20;71.90
20319;DHT22;10317;47.254;11.314;2024-03-25T00:19:13;5.20;72.60
20319;DHT22;10317;47.254;11.314;2024-03-25T00:21:39;5.20;74.50
20319;DHT22;10317;47.254;11.314;2024-03-25T00:24:05;5.20;75.00
20319;DHT22;10317;47.254;11.314;2024-03-25T00:26:31;5.10;76.60
20319;DHT22;10317;47.254;11.314;2024-03-25T00:28:57;5.10;75.70
20319;DHT22;10317;47.254;11.314;2024-03-25T00:31:22;5.10;76.00
20319;DHT22;10317;47.254;11.314;2024-03-25T00:33:48;5.10;76.50
20319;DHT22;10317;47.254;11.314;2024-03-25T00:36:13;5.00;76.40
20319;DHT22;10317;47.254;11.314;2024-03-25T00:38:39;5.00;76.50
20319;DHT22;10317;47.254;11.314;2024-03-25T00:41:05;5.00;77.00
20319;DHT22;10317;47.254;11.314;2024-03-25T00:43:30;5.00;77.90
20319;DHT22;10317;47.254;11.314;2024-03-25T00:45:56;5.00;79.10
20319;DHT22;10317;47.254;11.314;2024-03-25T00:48:22;5.00;78.90
20319;DHT22;10317;47.254;11.314;2024-03-25T00:50:48;5.00;78.60
20319;DHT22;10317;47.254;11.314;2024-03-25T00:53:14;5.00;78.50
20319;DHT22;10317;47.254;11.314;2024-03-25T00:55:40;5.00;78.70
20319;DHT22;10317;47.254;11.314;2024-03-25T00:58:06;5.00;77.00
20319;DHT22;10317;47.254;11.314;2024-03-25T01:00:32;5.00;76.20
20319;DHT22;10317;47.254;11.314;2024-03-25T01:02:57;5.00;76.50
20319;DHT22;10317;47.254;11.314;2024-03-25T01:05:23;5.00;76.40
20319;DHT22;10317;47.254;11.314;2024-03-25T01:07:49;5.00;76.50
20319;DHT22;10317;47.254;11.314;2024-03-25T01:10:15;5.00;77.70
20319;DHT22;10317;47.254;11.314;2024-03-25T01:12:41;4.90;77.80
20319;DHT22;10317;47.254;11.314;2024-03-25T01:15:07;4.90;77.40
20319;DHT22;10317;47.254;11.314;2024-03-25T01:17:36;4.90;78.60
20319;DHT22;10317;47.254;11.314;2024-03-25T01:20:02;4.90;77.80
20319;DHT22;10317;47.254;11.314;2024-03-25T01:22:27;4.80;77.80
20319;DHT22;10317;47.254;11.314;2024-03-25T01:24:53;4.90;77.50
20319;DHT22;10317;47.254;11.314;2024-03-25T01:27:19;4.90;77.80
20319;DHT22;10317;47.254;11.314;2024-03-25T01:29:44;4.90;77.00
20319;DHT22;10317;47.254;11.314;2024-03-25T01:32:10;4.90;76.60
20319;DHT22;10317;47.254;11.314;2024-03-25T01:34:36;4.90;77.00
20319;DHT22;10317;47.254;11.314;2024-03-25T01:37:01;4.90;77.90
20319;DHT22;10317;47.254;11.314;2024-03-25T01:39:27;4.80;78.40
20319;DHT22;10317;47.254;11.314;2024-03-25T01:41:53;4.80;77.70
20319;DHT22;10317;47.254;11.314;2024-03-25T01:44:18;4.80;76.70
20319;DHT22;10317;47.254;11.314;2024-03-25T01:46:44;4.80;77.70
20319;DHT22;10317;47.254;11.314;2024-03-25T01:49:10;4.80;77.50
20319;DHT22;10317;47.254;11.314;2024-03-25T01:51:36;4.80;77.10
20319;DHT22;10317;47.254;11.314;2024-03-25T01:54:03;4.80;78.80
20319;DHT22;10317;47.254;11.314;2024-03-25T01:56:32;4.80;78.60
20319;DHT22;10317;47.254;11.314;2024-03-25T01:58:59;4.80;78.00
20319;DHT22;10317;47.254;11.314;2024-03-25T02:01:25;4.80;78.50
20319;DHT22;10317;47.254;11.314;2024-03-25T02:03:50;4.90;77.00
20319;DHT22;10317;47.254;11.314;2024-03-25T02:06:19;4.90;76.40
20319;DHT22;10317;47.254;11.314;2024-03-25T02:08:45;4.90;77.60
20319;DHT22;10317;47.254;11.314;2024-03-25T02:11:12;4.90;77.60
20319;DHT22;10317;47.254;11.314;2024-03-25T02:13:39;4.90;77.70
20319;DHT22;10317;47.254;11.314;2024-03-25T02:16:05;4.90;77.80
20319;DHT22;10317;47.254;11.314;2024-03-25T02:18:30;4.80;78.40
20319;DHT22;10317;47.254;11.314;2024-03-25T02:20:57;4.80;79.60
20319;DHT22;10317;47.254;11.314;2024-03-25T02:23:23;4.80;79.80
20319;DHT22;10317;47.254;11.314;2024-03-25T02:25:52;4.70;80.30
20319;DHT22;10317;47.254;11.314;2024-03-25T02:28:19;4.70;80.50
20319;DHT22;10317;47.254;11.314;2024-03-25T02:30:44;4.70;81.20
20319;DHT22;10317;47.254;11.314;2024-03-25T02:33:10;4.70;81.30
20319;DHT22;10317;47.254;11.314;2024-03-25T02:35:36;4.70;81.90
20319;DHT22;10317;47.254;11.314;2024-03-25T02:38:03;4.70;79.90
20319;DHT22;10317;47.254;11.314;2024-03-25T02:40:29;4.70;79.80
20319;DHT22;10317;47.254;11.314;2024-03-25T02:42:55;4.60;81.20
20319;DHT22;10317;47.254;11.314;2024-03-25T02:45:21;4.70;81.70
20319;DHT22;10317;47.254;11.314;2024-03-25T02:47:47;4.70;81.40
20319;DHT22;10317;47.254;11.314;2024-03-25T02:50:13;4.60;81.50
20319;DHT22;10317;47.254;11.314;2024-03-25T02:52:38;4.60;82.30
20319;DHT22;10317;47.254;11.314;2024-03-25T02:55:04;4.60;82.50
20319;DHT22;10317;47.254;11.314;2024-03-25T02:57:30;4.60;82.80
20319;DHT22;10317;47.254;11.314;2024-03-25T02:59:56;4.60;83.20
20319;DHT22;10317;47.254;11.314;2024-03-25T03:02:21;4.60;83.10
20319;DHT22;10317;47.254;11.314;2024-03-25T03:04:47;4.60;83.40
20319;DHT22;10317;47.254;11.314;2024-03-25T03:07:13;4.60;83.60
20319;DHT22;10317;47.254;11.314;2024-03-25T03:09:38;4.60;84.60
20319;DHT22;10317;47.254;11.314;2024-03-25T03:12:04;4.60;84.90
20319;DHT22;10317;47.254;11.314;2024-03-25T03:14:30;4.50;84.40
20319;DHT22;10317;47.254;11.314;2024-03-25T03:16:55;4.50;84.50
20319;DHT22;10317;47.254;11.314;2024-03-25T03:19:25;4.50;85.60
20319;DHT22;10317;47.254;11.314;2024-03-25T03:21:51;4.50;85.90
20319;DHT22;10317;47.254;11.314;2024-03-25T03:24:17;4.50;85.90
20319;DHT22;10317;47.254;11.314;2024-03-25T03:26:44;4.50;86.00
20319;DHT22;10317;47.254;11.314;2024-03-25T03:29:09;4.50;86.60
20319;DHT22;10317;47.254;11.314;2024-03-25T03:31:36;4.50;87.20
20319;DHT22;10317;47.254;11.314;2024-03-25T03:34:02;4.40;87.40
20319;DHT22;10317;47.254;11.314;2024-03-25T03:36:28;4.40;88.10
20319;DHT22;10317;47.254;11.314;2024-03-25T03:38:53;4.30;88.60
20319;DHT22;10317;47.254;11.314;2024-03-25T03:41:20;4.30;89.00
20319;DHT22;10317;47.254;11.314;2024-03-25T03:43:45;4.30;89.00
20319;DHT22;10317;47.254;11.314;2024-03-25T03:46:11;4.30;90.00
20319;DHT22;10317;47.254;11.314;2024-03-25T03:48:37;4.30;90.00
20319;DHT22;10317;47.254;11.314;2024-03-25T03:51:07;4.20;90.10
20319;DHT22;10317;47.254;11.314;2024-03-25T03:53:34;4.20;90.40
20319;DHT22;10317;47.254;11.314;2024-03-25T03:56:01;4.20;90.50
20319;DHT22;10317;47.254;11.314;2024-03-25T03:58:28;4.10;90.60
20319;DHT22;10317;47.254;11.314;2024-03-25T04:00:54;4.10;90.70
20319;DHT22;10317;47.254;11.314;2024-03-25T04:03:20;4.10;91.50
20319;DHT22;10317;47.254;11.314;2024-03-25T04:05:45;4.00;91.50
20319;DHT22;10317;47.254;11.314;2024-03-25T04:08:11;4.00;91.50
20319;DHT22;10317;47.254;11.314;2024-03-25T04:10:38;4.00;91.70
20319;DHT22;10317;47.254;11.314;2024-03-25T04:13:04;4.00;92.00
20319;DHT22;10317;47.254;11.314;2024-03-25T04:15:36;4.00;92.60
20319;DHT22;10317;47.254;11.314;2024-03-25T04:18:03;3.90;92.80
20319;DHT22;10317;47.254;11.314;2024-03-25T04:20:29;3.80;93.30
20319;DHT22;10317;47.254;11.314;2024-03-25T04:22:55;3.80;93.10
20319;DHT22;10317;47.254;11.314;2024-03-25T04:25:22;3.70;93.30
20319;DHT22;10317;47.254;11.314;2024-03-25T04:27:48;3.70;93.50
20319;DHT22;10317;47.254;11.314;2024-03-25T04:30:14;3.70;93.80
20319;DHT22;10317;47.254;11.314;2024-03-25T04:32:40;3.60;94.20
20319;DHT22;10317;47.254;11.314;2024-03-25T04:35:07;3.60;94.90
20319;DHT22;10317;47.254;11.314;2024-03-25T04:37:34;3.50;94.90
20319;DHT22;10317;47.254;11.314;2024-03-25T04:40:00;3.40;95.40
20319;DHT22;10317;47.254;11.314;2024-03-25T04:42:26;3.40;95.40
20319;DHT22;10317;47.254;11.314;2024-03-25T04:44:51;3.30;95.60
20319;DHT22;10317;47.254;11.314;2024-03-25T04:47:18;3.20;95.90
20319;DHT22;10317;47.254;11.314;2024-03-25T04:49:44;3.10;96.20
20319;DHT22;10317;47.254;11.314;2024-03-25T04:52:15;3.10;96.70
20319;DHT22;10317;47.254;11.314;2024-03-25T04:54:44;3.10;96.80
20319;DHT22;10317;47.254;11.314;2024-03-25T04:57:10;3.00;97.10
20319;DHT22;10317;47.254;11.314;2024-03-25T04:59:35;3.00;97.20
20319;DHT22;10317;47.254;11.314;2024-03-25T05:02:01;2.90;97.30
20319;DHT22;10317;47.254;11.314;2024-03-25T05:04:27;2.90;97.50
20319;DHT22;10317;47.254;11.314;2024-03-25T05:06:53;2.90;97.80
20319;DHT22;10317;47.254;11.314;2024-03-25T05:09:19;2.90;97.90
20319;DHT22;10317;47.254;11.314;2024-03-25T05:11:45;2.90;98.10
20319;DHT22;10317;47.254;11.314;2024-03-25T05:14:11;2.90;98.30
20319;DHT22;10317;47.254;11.314;2024-03-25T05:16:37;2.90;98.60
20319;DHT22;10317;47.254;11.314;2024-03-25T05:19:03;2.90;98.90
20319;DHT22;10317;47.254;11.314;2024-03-25T05:21:32;2.90;98.80
20319;DHT22;10317;47.254;11.314;2024-03-25T05:23:58;2.90;98.90
20319;DHT22;10317;47.254;11.314;2024-03-25T05:26:24;2.90;99.20
20319;DHT22;10317;47.254;11.314;2024-03-25T05:28:56;2.90;99.10
20319;DHT22;10317;47.254;11.314;2024-03-25T05:31:21;2.90;99.20
20319;DHT22;10317;47.254;11.314;2024-03-25T05:33:47;2.90;99.20
20319;DHT22;10317;47.254;11.314;2024-03-25T05:36:13;2.90;99.20
20319;DHT22;10317;47.254;11.314;2024-03-25T05:38:39;3.00;99.30
20319;DHT22;10317;47.254;11.314;2024-03-25T05:41:05;3.00;99.50
20319;DHT22;10317;47.254;11.314;2024-03-25T05:43:31;3.00;99.50
20319;DHT22;10317;47.254;11.314;2024-03-25T05:45:57;3.00;99.50
20319;DHT22;10317;47.254;11.314;2024-03-25T05:48:26;3.10;99.60
20319;DHT22;10317;47.254;11.314;2024-03-25T05:51:01;3.10;99.70
20319;DHT22;10317;47.254;11.314;2024-03-25T05:53:31;3.00;99.80
20319;DHT22;10317;47.254;11.314;2024-03-25T05:55:57;3.00;99.90
20319;DHT22;10317;47.254;11.314;2024-03-25T05:58:24;3.00;99.90
20319;DHT22;10317;47.254;11.314;2024-03-25T06:00:51;3.00;99.60
20319;DHT22;10317;47.254;11.314;2024-03-25T06:03:17;3.00;99.70
20319;DHT22;10317;47.254;11.314;2024-03-25T06:05:43;3.00;99.90
20319;DHT22;10317;47.254;11.314;2024-03-25T06:08:09;3.00;99.90
20319;DHT22;10317;47.254;11.314;2024-03-25T06:10:43;3.00;99.90
20319;DHT22;10317;47.254;11.314;2024-03-25T06:13:09;3.10;99.90
20319;DHT22;10317;47.254;11.314;2024-03-25T06:15:35;3.20;99.90
20319;DHT22;10317;47.254;11.314;2024-03-25T06:18:01;3.30;99.90
20319;DHT22;10317;47.254;11.314;2024-03-25T06:20:26;3.30;99.90
20319;DHT22;10317;47.254;11.314;2024-03-25T06:22:52;3.50;99.90
20319;DHT22;10317;47.254;11.314;2024-03-25T06:25:18;3.60;99.80
20319;DHT22;10317;47.254;11.314;2024-03-25T06:27:43;3.70;99.90
20319;DHT22;10317;47.254;11.314;2024-03-25T06:30:10;3.80;99.90
20319;DHT22;10317;47.254;11.314;2024-03-25T06:32:55;3.80;99.80
20319;DHT22;10317;47.254;11.314;2024-03-25T06:35:39;3.90;99.70
20319;DHT22;10317;47.254;11.314;2024-03-25T06:38:04;3.90;99.50
20319;DHT22;10317;47.254;11.314;2024-03-25T06:40:30;4.00;99.40
20319;DHT22;10317;47.254;11.314;2024-03-25T06:42:56;4.00;99.30
20319;DHT22;10317;47.254;11.314;2024-03-25T06:45:22;4.10;99.30
20319;DHT22;10317;47.254;11.314;2024-03-25T06:47:48;4.20;99.10
20319;DHT22;10317;47.254;11.314;2024-03-25T06:50:14;4.30;98.90
20319;DHT22;10317;47.254;11.314;2024-03-25T06:52:40;4.40;98.90
20319;DHT22;10317;47.254;11.314;2024-03-25T06:55:06;4.40;98.80
20319;DHT22;10317;47.254;11.314;2024-03-25T06:57:32;4.60;98.90
20319;DHT22;10317;47.254;11.314;2024-03-25T06:59:58;4.70;98.70
20319;DHT22;10317;47.254;11.314;2024-03-25T07:02:23;4.80;98.50
20319;DHT22;10317;47.254;11.314;2024-03-25T07:04:49;5.00;98.50
20319;DHT22;10317;47.254;11.314;2024-03-25T07:07:15;5.20;98.10
20319;DHT22;10317;47.254;11.314;2024-03-25T07:09:41;5.40;98.10
20319;DHT22;10317;47.254;11.314;2024-03-25T07:12:07;5.50;97.80
20319;DHT22;10317;47.254;11.314;2024-03-25T07:14:32;5.70;97.50
20319;DHT22;10317;47.254;11.314;2024-03-25T07:16:58;6.00;97.10
20319;DHT22;10317;47.254;11.314;2024-03-25T07:19:24;6.40;96.00
20319;DHT22;10317;47.254;11.314;2024-03-25T07:21:50;7.10;94.80
20319;DHT22;10317;47.254;11.314;2024-03-25T07:24:15;7.90;93.10
20319;DHT22;10317;47.254;11.314;2024-03-25T07:26:41;8.70;91.30
20319;DHT22;10317;47.254;11.314;2024-03-25T07:29:07;9.40;87.70
20319;DHT22;10317;47.254;11.314;2024-03-25T07:31:33;10.00;86.60
20319;DHT22;10317;47.254;11.314;2024-03-25T07:33:58;10.40;85.30
20319;DHT22;10317;47.254;11.314;2024-03-25T07:36:24;10.60;79.60
20319;DHT22;10317;47.254;11.314;2024-03-25T07:38:49;10.60;80.90
20319;DHT22;10317;47.254;11.314;2024-03-25T07:41:15;10.50;79.70
20319;DHT22;10317;47.254;11.314;2024-03-25T07:43:41;10.60;78.90
20319;DHT22;10317;47.254;11.314;2024-03-25T07:46:06;11.80;78.10
20319;DHT22;10317;47.254;11.314;2024-03-25T07:48:32;14.10;72.40
20319;DHT22;10317;47.254;11.314;2024-03-25T07:50:58;17.00;72.10
20319;DHT22;10317;47.254;11.314;2024-03-25T07:53:23;20.20;64.80
20319;DHT22;10317;47.254;11.314;2024-03-25T07:55:49;23.30;53.40
20319;DHT22;10317;47.254;11.314;2024-03-25T07:58:16;25.60;49.50
20319;DHT22;10317;47.254;11.314;2024-03-25T08:00:42;27.90;48.80
20319;DHT22;10317;47.254;11.314;2024-03-25T08:03:07;29.60;43.90
20319;DHT22;10317;47.254;11.314;2024-03-25T08:05:33;31.10;39.90
20319;DHT22;10317;47.254;11.314;2024-03-25T08:07:59;32.20;36.80
20319;DHT22;10317;47.254;11.314;2024-03-25T08:10:25;33.20;37.00
20319;DHT22;10317;47.254;11.314;2024-03-25T08:12:50;33.80;32.00
20319;DHT22;10317;47.254;11.314;2024-03-25T08:15:16;33.90;30.40
20319;DHT22;10317;47.254;11.314;2024-03-25T08:17:42;34.50;31.50
20319;DHT22;10317;47.254;11.314;2024-03-25T08:20:08;35.50;29.90
20319;DHT22;10317;47.254;11.314;2024-03-25T08:22:34;35.70;29.30
20319;DHT22;10317;47.254;11.314;2024-03-25T08:24:59;36.40;28.60
20319;DHT22;10317;47.254;11.314;2024-03-25T08:27:25;36.80;28.80
20319;DHT22;10317;47.254;11.314;2024-03-25T08:29:51;37.20;27.80
20319;DHT22;10317;47.254;11.314;2024-03-25T08:32:19;37.50;27.20
20319;DHT22;10317;47.254;11.314;2024-03-25T08:34:44;37.70;26.00
20319;DHT22;10317;47.254;11.314;2024-03-25T08:37:11;37.90;26.80
20319;DHT22;10317;47.254;11.314;2024-03-25T08:39:37;38.20;26.40
20319;DHT22;10317;47.254;11.314;2024-03-25T08:42:02;38.40;26.10
20319;DHT22;10317;47.254;11.314;2024-03-25T08:44:28;38.60;25.80
20319;DHT22;10317;47.254;11.314;2024-03-25T08:46:54;38.50;25.60
20319;DHT22;10317;47.254;11.314;2024-03-25T08:49:19;38.70;25.50
20319;DHT22;10317;47.254;11.314;2024-03-25T08:51:45;39.30;25.40
20319;DHT22;10317;47.254;11.314;2024-03-25T08:54:11;39.20;25.20
20319;DHT22;10317;47.254;11.314;2024-03-25T08:56:37;39.40;25.50
20319;DHT22;10317;47.254;11.314;2024-03-25T08:59:02;39.70;25.50
20319;DHT22;10317;47.254;11.314;2024-03-25T09:01:29;39.80;25.10
20319;DHT22;10317;47.254;11.314;2024-03-25T09:03:56;40.00;24.90
20319;DHT22;10317;47.254;11.314;2024-03-25T09:06:21;39.90;24.50
20319;DHT22;10317;47.254;11.314;2024-03-25T09:08:47;39.50;24.50
20319;DHT22;10317;47.254;11.314;2024-03-25T09:11:31;39.10;24.50
20319;DHT22;10317;47.254;11.314;2024-03-25T09:13:57;39.30;25.10
20319;DHT22;10317;47.254;11.314;2024-03-25T09:16:23;39.30;24.90
20319;DHT22;10317;47.254;11.314;2024-03-25T09:18:49;38.90;25.00
20319;DHT22;10317;47.254;11.314;2024-03-25T09:21:14;39.20;24.90
20319;DHT22;10317;47.254;11.314;2024-03-25T09:23:40;39.20;24.80
20319;DHT22;10317;47.254;11.314;2024-03-25T09:26:06;39.70;24.60
20319;DHT22;10317;47.254;11.314;2024-03-25T09:28:31;39.50;24.60
20319;DHT22;10317;47.254;11.314;2024-03-25T09:30:57;38.80;24.50
20319;DHT22;10317;47.254;11.314;2024-03-25T09:33:22;39.10;24.40
20319;DHT22;10317;47.254;11.314;2024-03-25T09:35:49;39.10;24.60
20319;DHT22;10317;47.254;11.314;2024-03-25T09:38:15;39.70;24.70
20319;DHT22;10317;47.254;11.314;2024-03-25T09:40:40;39.90;24.60
20319;DHT22;10317;47.254;11.314;2024-03-25T09:43:12;40.00;24.50
20319;DHT22;10317;47.254;11.314;2024-03-25T09:45:40;39.90;24.50
20319;DHT22;10317;47.254;11.314;2024-03-25T09:48:06;40.20;24.60
20319;DHT22;10317;47.254;11.314;2024-03-25T09:50:32;39.90;24.40
20319;DHT22;10317;47.254;11.314;2024-03-25T09:52:58;39.60;24.40
20319;DHT22;10317;47.254;11.314;2024-03-25T09:55:24;39.20;24.40
20319;DHT22;10317;47.254;11.314;2024-03-25T09:57:50;39.10;24.60
20319;DHT22;10317;47.254;11.314;2024-03-25T10:00:18;39.40;24.80
20319;DHT22;10317;47.254;11.314;2024-03-25T10:02:44;39.80;24.50
20319;DHT22;10317;47.254;11.314;2024-03-25T10:05:10;39.30;24.40
20319;DHT22;10317;47.254;11.314;2024-03-25T10:07:36;39.40;24.50
20319;DHT22;10317;47.254;11.314;2024-03-25T10:10:06;39.50;24.50
20319;DHT22;10317;47.254;11.314;2024-03-25T10:12:32;39.80;24.40
20319;DHT22;10317;47.254;11.314;2024-03-25T10:14:58;39.90;24.60
20319;DHT22;10317;47.254;11.314;2024-03-25T10:17:24;39.90;24.40
20319;DHT22;10317;47.254;11.314;2024-03-25T10:19:50;39.70;24.70
20319;DHT22;10317;47.254;11.314;2024-03-25T10:22:15;39.70;24.70
20319;DHT22;10317;47.254;11.314;2024-03-25T10:24:42;39.80;24.60
20319;DHT22;10317;47.254;11.314;2024-03-25T10:27:26;39.60;24.50
20319;DHT22;10317;47.254;11.314;2024-03-25T10:29:53;39.30;24.60
20319;DHT22;10317;47.254;11.314;2024-03-25T10:32:21;39.20;24.30
20319;DHT22;10317;47.254;11.314;2024-03-25T10:34:47;39.10;23.80
20319;DHT22;10317;47.254;11.314;2024-03-25T10:37:13;39.20;24.10
20319;DHT22;10317;47.254;11.314;2024-03-25T10:39:50;39.70;24.20
20319;DHT22;10317;47.254;11.314;2024-03-25T10:42:20;39.60;24.40
20319;DHT22;10317;47.254;11.314;2024-03-25T10:44:49;39.80;24.30
20319;DHT22;10317;47.254;11.314;2024-03-25T10:47:21;39.10;24.60
20319;DHT22;10317;47.254;11.314;2024-03-25T10:49:57;39.50;24.80
20319;DHT22;10317;47.254;11.314;2024-03-25T10:52:27;39.60;24.50
20319;DHT22;10317;47.254;11.314;2024-03-25T10:54:55;39.70;23.90
20319;DHT22;10317;47.254;11.314;2024-03-25T10:57:21;39.50;24.20
20319;DHT22;10317;47.254;11.314;2024-03-25T10:59:49;39.40;24.00
20319;DHT22;10317;47.254;11.314;2024-03-25T11:02:14;39.60;23.80
20319;DHT22;10317;47.254;11.314;2024-03-25T11:04:42;39.30;24.20
20319;DHT22;10317;47.254;11.314;2024-03-25T11:07:15;39.20;24.20
20319;DHT22;10317;47.254;11.314;2024-03-25T11:09:42;39.00;23.80
20319;DHT22;10317;47.254;11.314;2024-03-25T11:12:11;38.80;24.10
20319;DHT22;10317;47.254;11.314;2024-03-25T11:14:38;38.00;24.20
20319;DHT22;10317;47.254;11.314;2024-03-25T11:17:14;37.50;24.20
20319;DHT22;10317;47.254;11.314;2024-03-25T11:19:41;36.40;24.00
20319;DHT22;10317;47.254;11.314;2024-03-25T11:22:08;35.70;24.90
20319;DHT22;10317;47.254;11.314;2024-03-25T11:24:35;34.60;24.40
20319;DHT22;10317;47.254;11.314;2024-03-25T11:27:06;33.20;24.30
20319;DHT22;10317;47.254;11.314;2024-03-25T11:29:33;31.80;25.10
20319;DHT22;10317;47.254;11.314;2024-03-25T11:32:03;31.10;24.60
20319;DHT22;10317;47.254;11.314;2024-03-25T11:34:29;30.30;25.10
20319;DHT22;10317;47.254;11.314;2024-03-25T11:36:55;29.80;25.60
20319;DHT22;10317;47.254;11.314;2024-03-25T11:39:24;29.30;25.80
20319;DHT22;10317;47.254;11.314;2024-03-25T11:41:54;29.10;26.60
20319;DHT22;10317;47.254;11.314;2024-03-25T11:44:19;28.60;26.00
20319;DHT22;10317;47.254;11.314;2024-03-25T11:46:46;28.00;25.40
20319;DHT22;10317;47.254;11.314;2024-03-25T11:49:15;27.60;25.80
20319;DHT22;10317;47.254;11.314;2024-03-25T11:51:44;27.20;26.30
20319;DHT22;10317;47.254;11.314;2024-03-25T11:54:11;26.80;26.70
20319;DHT22;10317;47.254;11.314;2024-03-25T11:56:37;26.70;27.60
20319;DHT22;10317;47.254;11.314;2024-03-25T11:59:03;26.50;26.60
20319;DHT22;10317;47.254;11.314;2024-03-25T12:01:30;26.30;26.80
20319;DHT22;10317;47.254;11.314;2024-03-25T12:03:56;26.20;27.70
20319;DHT22;10317;47.254;11.314;2024-03-25T12:06:21;26.10;28.00
20319;DHT22;10317;47.254;11.314;2024-03-25T12:08:47;25.90;28.90
20319;DHT22;10317;47.254;11.314;2024-03-25T12:11:32;25.80;27.70
20319;DHT22;10317;47.254;11.314;2024-03-25T12:13:58;25.50;28.30
20319;DHT22;10317;47.254;11.314;2024-03-25T12:16:24;25.50;27.70
20319;DHT22;10317;47.254;11.314;2024-03-25T12:18:50;25.50;28.80
20319;DHT22;10317;47.254;11.314;2024-03-25T12:21:17;25.20;27.60
20319;DHT22;10317;47.254;11.314;2024-03-25T12:23:43;25.30;29.20
20319;DHT22;10317;47.254;11.314;2024-03-25T12:26:09;25.30;29.30
20319;DHT22;10317;47.254;11.314;2024-03-25T12:28:35;25.20;27.40
20319;DHT22;10317;47.254;11.314;2024-03-25T12:31:06;24.90;27.60
20319;DHT22;10317;47.254;11.314;2024-03-25T12:33:43;24.60;27.20
20319;DHT22;10317;47.254;11.314;2024-03-25T12:36:11;24.30;26.90
20319;DHT22;10317;47.254;11.314;2024-03-25T12:38:37;24.40;28.80
20319;DHT22;10317;47.254;11.314;2024-03-25T12:41:08;24.40;28.20
20319;DHT22;10317;47.254;11.314;2024-03-25T12:43:35;24.40;28.60
20319;DHT22;10317;47.254;11.314;2024-03-25T12:46:01;24.40;29.10
20319;DHT22;10317;47.254;11.314;2024-03-25T12:48:29;24.40;28.40
20319;DHT22;10317;47.254;11.314;2024-03-25T12:50:55;24.30;28.10
20319;DHT22;10317;47.254;11.314;2024-03-25T12:53:20;24.10;27.90
20319;DHT22;10317;47.254;11.314;2024-03-25T12:55:46;24.10;28.60
20319;DHT22;10317;47.254;11.314;2024-03-25T12:58:12;24.00;28.20
20319;DHT22;10317;47.254;11.314;2024-03-25T13:00:38;24.00;28.20
20319;DHT22;10317;47.254;11.314;2024-03-25T13:03:06;23.90;28.10
20319;DHT22;10317;47.254;11.314;2024-03-25T13:05:33;23.80;29.00
20319;DHT22;10317;47.254;11.314;2024-03-25T13:07:59;23.30;29.00
20319;DHT22;10317;47.254;11.314;2024-03-25T13:10:24;23.30;29.30
20319;DHT22;10317;47.254;11.314;2024-03-25T13:12:50;23.00;29.30
20319;DHT22;10317;47.254;11.314;2024-03-25T13:15:16;23.20;29.50
20319;DHT22;10317;47.254;11.314;2024-03-25T13:17:41;23.30;29.20
20319;DHT22;10317;47.254;11.314;2024-03-25T13:20:07;23.20;28.30
20319;DHT22;10317;47.254;11.314;2024-03-25T13:22:33;23.20;27.80
20319;DHT22;10317;47.254;11.314;2024-03-25T13:24:59;23.20;28.20
20319;DHT22;10317;47.254;11.314;2024-03-25T13:27:28;23.00;28.90
20319;DHT22;10317;47.254;11.314;2024-03-25T13:29:53;23.10;28.50
20319;DHT22;10317;47.254;11.314;2024-03-25T13:32:20;23.10;29.40
20319;DHT22;10317;47.254;11.314;2024-03-25T13:34:46;23.30;28.60
20319;DHT22;10317;47.254;11.314;2024-03-25T13:37:12;23.20;27.90
20319;DHT22;10317;47.254;11.314;2024-03-25T13:39:38;22.90;28.40
20319;DHT22;10317;47.254;11.314;2024-03-25T13:42:04;22.90;28.20
20319;DHT22;10317;47.254;11.314;2024-03-25T13:44:30;23.00;29.00
20319;DHT22;10317;47.254;11.314;2024-03-25T13:46:55;23.10;29.10
20319;DHT22;10317;47.254;11.314;2024-03-25T13:49:21;23.10;27.70
20319;DHT22;10317;47.254;11.314;2024-03-25T13:51:51;22.80;28.50
20319;DHT22;10317;47.254;11.314;2024-03-25T13:54:21;22.60;28.60
20319;DHT22;10317;47.254;11.314;2024-03-25T13:56:47;22.70;30.00
20319;DHT22;10317;47.254;11.314;2024-03-25T13:59:13;22.80;28.00
20319;DHT22;10317;47.254;11.314;2024-03-25T14:01:40;22.50;28.30
20319;DHT22;10317;47.254;11.314;2024-03-25T14:04:06;22.50;28.80
20319;DHT22;10317;47.254;11.314;2024-03-25T14:06:32;22.60;29.50
20319;DHT22;10317;47.254;11.314;2024-03-25T14:09:01;22.70;28.60
20319;DHT22;10317;47.254;11.314;2024-03-25T14:11:30;22.70;28.30
20319;DHT22;10317;47.254;11.314;2024-03-25T14:13:56;22.70;28.90
20319;DHT22;10317;47.254;11.314;2024-03-25T14:16:21;22.80;28.30
20319;DHT22;10317;47.254;11.314;2024-03-25T14:18:47;22.70;27.70
20319;DHT22;10317;47.254;11.314;2024-03-25T14:21:13;22.70;28.90
20319;DHT22;10317;47.254;11.314;2024-03-25T14:23:38;22.50;28.70
20319;DHT22;10317;47.254;11.314;2024-03-25T14:26:14;22.40;29.10
20319;DHT22;10317;47.254;11.314;2024-03-25T14:28:40;22.20;28.60
20319;DHT22;10317;47.254;11.314;2024-03-25T14:31:06;22.10;28.50
20319;DHT22;10317;47.254;11.314;2024-03-25T14:33:32;22.30;29.40
20319;DHT22;10317;47.254;11.314;2024-03-25T14:35:57;22.30;29.50
20319;DHT22;10317;47.254;11.314;2024-03-25T14:38:23;22.40;29.90
20319;DHT22;10317;47.254;11.314;2024-03-25T14:40:49;22.50;29.10
20319;DHT22;10317;47.254;11.314;2024-03-25T14:43:15;22.50;29.60
20319;DHT22;10317;47.254;11.314;2024-03-25T14:45:44;22.30;28.30
20319;DHT22;10317;47.254;11.314;2024-03-25T14:48:10;22.20;28.60
20319;DHT22;10317;47.254;11.314;2024-03-25T14:50:36;22.10;29.30
20319;DHT22;10317;47.254;11.314;2024-03-25T14:53:02;22.00;29.10
20319;DHT22;10317;47.254;11.314;2024-03-25T14:55:29;21.70;28.00
20319;DHT22;10317;47.254;11.314;2024-03-25T14:57:55;21.30;28.20
20319;DHT22;10317;47.254;11.314;2024-03-25T15:00:21;21.00;28.10
20319;DHT22;10317;47.254;11.314;2024-03-25T15:02:47;20.70;29.20
20319;DHT22;10317;47.254;11.314;2024-03-25T15:05:12;20.40;29.20
20319;DHT22;10317;47.254;11.314;2024-03-25T15:07:38;20.30;30.10
20319;DHT22;10317;47.254;11.314;2024-03-25T15:10:04;20.10;30.00
20319;DHT22;10317;47.254;11.314;2024-03-25T15:12:30;19.90;30.00
20319;DHT22;10317;47.254;11.314;2024-03-25T15:14:56;19.70;30.20
20319;DHT22;10317;47.254;11.314;2024-03-25T15:17:21;19.40;30.00
20319;DHT22;10317;47.254;11.314;2024-03-25T15:19:47;19.20;30.10